createdAt,value
2023-04-22T00:00:44.561Z,3.97
2023-04-22T00:03:11.519Z,3.40
2023-04-22T00:05:38.465Z,3.80
2023-04-22T00:08:05.865Z,3.23
2023-04-22T00:10:32.671Z,3.53
2023-04-22T00:12:59.471Z,3.13
2023-04-22T00:15:27.028Z,3.40
2023-04-22T00:17:54.059Z,2.70
2023-04-22T00:20:23.947Z,3.50
2023-04-22T00:22:50.709Z,2.70
2023-04-22T00:25:17.855Z,2.10
2023-04-22T00:27:45.304Z,2.60
2023-04-22T00:30:12.576Z,2.60
2023-04-22T00:32:39.565Z,3.17
2023-04-22T00:35:06.993Z,2.60
2023-04-22T00:37:34.107Z,3.33
2023-04-22T00:40:01.166Z,3.03
2023-04-22T00:42:28.693Z,2.50
2023-04-22T00:44:56.037Z,2.23
2023-04-22T00:47:26.788Z,2.53
2023-04-22T00:49:54.940Z,2.33
2023-04-22T00:52:22.245Z,2.70
2023-04-22T00:54:49.815Z,3.00
2023-04-22T00:57:17.461Z,3.07
2023-04-22T00:59:44.744Z,2.50
2023-04-22T01:02:12.420Z,4.07
2023-04-22T01:04:39.800Z,3.80
2023-04-22T01:07:06.599Z,2.90
2023-04-22T01:09:33.379Z,2.80
2023-04-22T01:12:01.408Z,2.97
2023-04-22T01:14:28.895Z,3.07
2023-04-22T01:16:56.637Z,3.20
2023-04-22T01:19:24.282Z,2.97
2023-04-22T01:21:52.034Z,2.77
2023-04-22T01:24:19.511Z,3.17
2023-04-22T01:26:47.842Z,2.50
2023-04-22T01:29:16.259Z,2.37
2023-04-22T01:31:43.348Z,2.37
2023-04-22T01:34:11.259Z,2.80
2023-04-22T01:36:38.644Z,3.50
2023-04-22T01:39:05.382Z,3.37
2023-04-22T01:41:32.334Z,2.90
2023-04-22T01:44:02.730Z,3.60
2023-04-22T01:46:29.670Z,3.50
2023-04-22T01:48:56.459Z,3.20
2023-04-22T01:51:26.108Z,3.57
2023-04-22T01:53:53.057Z,3.80
2023-04-22T01:56:19.766Z,3.33
2023-04-22T01:58:46.824Z,4.20
2023-04-22T02:01:13.666Z,4.27
2023-04-22T02:03:40.448Z,3.53
2023-04-22T02:06:07.822Z,3.40
2023-04-22T02:08:34.688Z,4.00
2023-04-22T02:11:01.565Z,3.40
2023-04-22T02:13:39.227Z,3.30
2023-04-22T02:16:06.876Z,3.33
2023-04-22T02:18:34.509Z,3.83
2023-04-22T02:21:01.390Z,5.07
2023-04-22T02:23:28.852Z,4.63
2023-04-22T02:25:56.038Z,4.60
2023-04-22T02:28:23.075Z,4.80
2023-04-22T02:30:49.816Z,5.77
2023-04-22T02:33:17.096Z,4.53
2023-04-22T02:35:43.828Z,5.27
2023-04-22T02:38:11.227Z,4.97
2023-04-22T02:40:38.024Z,5.67
2023-04-22T02:43:05.108Z,5.53
2023-04-22T02:45:31.925Z,5.07
2023-04-22T02:47:59.366Z,5.53
2023-04-22T02:50:26.223Z,4.37
2023-04-22T02:52:53.130Z,5.27
2023-04-22T02:55:19.868Z,5.20
2023-04-22T02:57:47.241Z,4.90
2023-04-22T03:00:14.369Z,4.43
2023-04-22T03:02:41.157Z,5.00
2023-04-22T03:05:08.411Z,5.27
2023-04-22T03:07:35.337Z,4.73
2023-04-22T03:10:02.095Z,4.87
2023-04-22T03:12:29.010Z,4.83
2023-04-22T03:14:55.957Z,5.23
2023-04-22T03:17:22.848Z,5.03
2023-04-22T03:19:49.590Z,5.00
2023-04-22T03:22:16.714Z,4.83
2023-04-22T03:24:43.884Z,4.80
2023-04-22T03:27:11.160Z,5.17
2023-04-22T03:29:38.524Z,4.97
2023-04-22T03:32:05.788Z,5.60
2023-04-22T03:34:32.512Z,5.60
2023-04-22T03:36:59.174Z,5.50
2023-04-22T03:39:25.887Z,4.73
2023-04-22T03:41:52.774Z,5.47
2023-04-22T03:44:19.480Z,5.20
2023-04-22T03:46:46.207Z,4.87
2023-04-22T03:49:13.598Z,6.13
2023-04-22T03:51:40.534Z,4.93
2023-04-22T03:54:07.376Z,6.10
2023-04-22T03:56:34.205Z,5.03
2023-04-22T03:59:00.949Z,4.93
2023-04-22T04:01:27.869Z,5.67
2023-04-22T04:03:54.734Z,5.43
2023-04-22T04:06:21.813Z,5.23
2023-04-22T04:08:48.467Z,4.90
2023-04-22T04:11:15.212Z,5.40
2023-04-22T04:13:41.999Z,5.33
2023-04-22T04:16:08.751Z,5.50
2023-04-22T04:18:36.580Z,5.90
2023-04-22T04:21:03.483Z,5.80
2023-04-22T04:23:30.182Z,5.43
2023-04-22T04:25:57.365Z,5.77
2023-04-22T04:28:24.301Z,5.27
2023-04-22T04:30:54.189Z,5.03
2023-04-22T04:33:21.054Z,4.90
2023-04-22T04:35:48.050Z,5.63
2023-04-22T04:38:14.842Z,5.30
2023-04-22T04:40:43.573Z,5.73
2023-04-22T04:43:10.369Z,5.03
2023-04-22T04:45:37.774Z,5.57
2023-04-22T04:48:07.009Z,6.60
2023-04-22T04:50:33.774Z,4.50
2023-04-22T04:53:00.529Z,5.00
2023-04-22T04:55:27.309Z,4.90
2023-04-22T04:57:54.009Z,4.43
2023-04-22T05:00:20.798Z,4.70
2023-04-22T05:02:47.638Z,4.80
2023-04-22T05:05:14.418Z,4.07
2023-04-22T05:07:41.260Z,3.70
2023-04-22T05:10:08.623Z,4.43
2023-04-22T05:12:35.426Z,4.00
2023-04-22T05:15:02.835Z,4.63
2023-04-22T05:17:30.382Z,5.10
2023-04-22T05:19:57.109Z,4.60
2023-04-22T05:22:24.019Z,4.70
2023-04-22T05:24:50.765Z,5.07
2023-04-22T05:27:18.129Z,5.80
2023-04-22T05:29:44.844Z,4.40
2023-04-22T05:32:11.658Z,4.60
2023-04-22T05:34:38.497Z,3.87
2023-04-22T05:37:05.764Z,4.70
2023-04-22T05:39:32.703Z,4.00
2023-04-22T05:41:59.489Z,3.57
2023-04-22T05:44:26.260Z,4.27
2023-04-22T05:46:52.959Z,4.90
2023-04-22T05:49:19.645Z,5.13
2023-04-22T05:51:46.468Z,4.27
2023-04-22T05:54:13.194Z,4.87
2023-04-22T05:56:39.963Z,4.80
2023-04-22T05:59:06.677Z,4.83
2023-04-22T06:01:33.460Z,4.60
2023-04-22T06:04:00.523Z,5.40
2023-04-22T06:06:27.592Z,4.90
2023-04-22T06:08:54.481Z,4.30
2023-04-22T06:11:22.094Z,3.63
2023-04-22T06:13:48.870Z,3.77
2023-04-22T06:16:15.742Z,9.83
2023-04-22T06:18:43.629Z,4.33
2023-04-22T06:21:10.668Z,4.07
2023-04-22T06:23:37.468Z,4.60
2023-04-22T06:26:04.538Z,3.70
2023-04-22T06:28:31.220Z,4.20
2023-04-22T06:30:57.914Z,3.60
2023-04-22T06:33:24.621Z,2.90
2023-04-22T06:35:51.498Z,3.30
2023-04-22T06:38:18.214Z,3.50
2023-04-22T06:40:44.995Z,2.83
2023-04-22T06:43:11.706Z,2.93
2023-04-22T06:45:38.398Z,2.80
2023-04-22T06:48:05.225Z,2.93
2023-04-22T06:50:32.049Z,3.07
2023-04-22T06:52:58.826Z,3.13
2023-04-22T06:55:25.599Z,2.80
2023-04-22T06:57:52.362Z,2.70
2023-04-22T07:00:19.156Z,2.50
2023-04-22T07:02:45.936Z,3.03
2023-04-22T07:05:12.801Z,1.90
2023-04-22T07:07:39.475Z,2.53
2023-04-22T07:10:06.539Z,2.67
2023-04-22T07:12:33.367Z,2.47
2023-04-22T07:15:00.054Z,2.53
2023-04-22T07:17:26.798Z,2.40
2023-04-22T07:19:53.783Z,2.03
2023-04-22T07:22:20.820Z,1.83
2023-04-22T07:24:47.584Z,1.57
2023-04-22T07:27:14.466Z,2.40
2023-04-22T07:29:41.611Z,1.60
2023-04-22T07:32:08.969Z,2.10
2023-04-22T07:34:35.719Z,1.57
2023-04-22T07:37:02.723Z,2.10
2023-04-22T07:39:29.634Z,1.47
2023-04-22T07:41:56.965Z,1.60
2023-04-22T07:44:23.859Z,1.80
2023-04-22T07:46:50.773Z,1.83
2023-04-22T07:49:17.764Z,1.73
2023-04-22T07:51:44.961Z,1.80
2023-04-22T07:54:11.803Z,2.10
2023-04-22T07:56:38.611Z,2.20
2023-04-22T07:59:05.935Z,1.77
2023-04-22T08:01:34.046Z,2.07
2023-04-22T08:04:01.071Z,2.13
2023-04-22T08:06:28.182Z,1.63
2023-04-22T08:08:54.970Z,2.07
2023-04-22T08:11:21.971Z,1.90
2023-04-22T08:13:48.734Z,1.67
2023-04-22T08:16:15.946Z,1.90
2023-04-22T08:18:42.711Z,1.57
2023-04-22T08:21:09.465Z,1.50
2023-04-22T08:23:36.204Z,1.60
2023-04-22T08:26:04.585Z,1.60
2023-04-22T08:28:31.586Z,1.80
2023-04-22T08:30:58.433Z,1.67
2023-04-22T08:33:27.159Z,1.83
2023-04-22T08:35:54.194Z,1.97
2023-04-22T08:38:21.064Z,1.47
2023-04-22T08:40:48.415Z,1.70
2023-04-22T08:43:15.276Z,1.53
2023-04-22T08:45:42.583Z,2.17
2023-04-22T08:48:10.110Z,1.80
2023-04-22T08:50:40.952Z,2.50
2023-04-22T08:53:07.888Z,1.43
2023-04-22T08:55:36.078Z,1.57
2023-04-22T08:58:05.820Z,2.00
2023-04-22T09:00:34.565Z,2.13
2023-04-22T09:03:05.395Z,1.60
2023-04-22T09:05:38.609Z,1.67
2023-04-22T09:08:05.808Z,1.73
2023-04-22T09:10:34.220Z,2.00
2023-04-22T09:13:03.454Z,1.90
2023-04-22T09:15:30.309Z,1.47
2023-04-22T09:17:58.612Z,1.70
2023-04-22T09:20:29.479Z,1.47
2023-04-22T09:22:57.552Z,1.80
2023-04-22T09:25:26.745Z,2.10
2023-04-22T09:27:55.829Z,1.50
2023-04-22T09:30:29.650Z,2.60
2023-04-22T09:33:15.718Z,2.00
2023-04-22T09:35:43.456Z,1.80
2023-04-22T09:38:11.671Z,1.80
2023-04-22T09:40:41.712Z,1.60
2023-04-22T09:43:09.697Z,1.43
2023-04-22T09:45:41.411Z,1.73
2023-04-22T09:48:20.327Z,1.33
2023-04-22T09:50:49.683Z,1.53
2023-04-22T09:53:18.938Z,1.60
2023-04-22T09:55:55.703Z,1.63
2023-04-22T09:58:27.591Z,1.60
2023-04-22T10:00:56.872Z,1.60
2023-04-22T10:03:23.966Z,1.67
2023-04-22T10:05:51.043Z,1.40
2023-04-22T10:08:18.312Z,1.60
2023-04-22T10:10:45.363Z,1.53
2023-04-22T10:13:12.454Z,1.40
2023-04-22T10:15:40.614Z,1.63
2023-04-22T10:18:10.912Z,1.60
2023-04-22T10:20:41.187Z,1.60
2023-04-22T10:23:14.267Z,1.53
2023-04-22T10:25:41.763Z,1.80
2023-04-22T10:28:10.967Z,1.60
2023-04-22T10:30:39.485Z,2.80
2023-04-22T10:33:21.376Z,1.43
2023-04-22T10:36:10.598Z,1.80
2023-04-22T10:39:01.449Z,1.70
2023-04-22T10:41:35.738Z,1.70
2023-04-22T10:44:06.711Z,1.50
2023-04-22T10:46:45.330Z,2.10
2023-04-22T10:49:18.754Z,1.60
2023-04-22T10:51:59.524Z,1.87
2023-04-22T10:54:28.095Z,1.70
2023-04-22T10:57:08.580Z,2.00
2023-04-22T10:59:42.620Z,1.80
2023-04-22T11:02:12.087Z,1.50
2023-04-22T11:04:39.618Z,1.77
2023-04-22T11:07:20.533Z,1.90
2023-04-22T11:09:51.251Z,1.60
2023-04-22T11:12:36.058Z,1.43
2023-04-22T11:15:09.578Z,1.90
2023-04-22T11:17:37.626Z,1.60
2023-04-22T11:20:07.156Z,1.80
2023-04-22T11:22:38.243Z,1.47
2023-04-22T11:25:06.261Z,1.47
2023-04-22T11:27:33.107Z,1.80
2023-04-22T11:30:20.037Z,1.57
2023-04-22T11:32:52.190Z,1.53
2023-04-22T11:35:23.544Z,1.93
2023-04-22T11:37:52.673Z,2.00
2023-04-22T11:40:30.922Z,1.70
2023-04-22T11:43:00.996Z,1.73
2023-04-22T11:45:29.741Z,2.20
2023-04-22T11:47:56.713Z,1.83
2023-04-22T11:50:31.124Z,1.60
2023-04-22T11:53:03.029Z,1.80
2023-04-22T11:55:31.933Z,2.10
2023-04-22T11:58:10.941Z,1.57
2023-04-22T12:00:47.661Z,2.60
2023-04-22T12:03:25.956Z,1.93
2023-04-22T12:05:55.343Z,1.77
2023-04-22T12:08:33.453Z,2.03
2023-04-22T12:11:09.331Z,1.73
2023-04-22T12:13:40.305Z,1.67
2023-04-22T12:16:14.863Z,1.90
2023-04-22T12:18:55.506Z,2.37
2023-04-22T12:21:24.740Z,2.30
2023-04-22T12:23:54.725Z,1.70
2023-04-22T12:26:27.595Z,1.83
2023-04-22T12:28:56.188Z,1.80
2023-04-22T12:31:23.125Z,2.23
2023-04-22T12:33:50.307Z,1.73
2023-04-22T12:36:19.149Z,2.43
2023-04-22T12:38:46.075Z,1.70
2023-04-22T12:41:12.823Z,1.90
2023-04-22T12:43:39.883Z,1.90
2023-04-22T12:46:08.077Z,2.07
2023-04-22T12:48:37.222Z,1.87
2023-04-22T12:51:05.241Z,1.80
2023-04-22T12:53:32.058Z,1.90
2023-04-22T12:55:59.195Z,1.80
2023-04-22T12:58:26.433Z,2.20
2023-04-22T13:00:53.336Z,2.17
2023-04-22T13:03:20.245Z,2.27
2023-04-22T13:05:47.221Z,1.80
2023-04-22T13:08:13.894Z,1.80
2023-04-22T13:10:40.754Z,1.90
2023-04-22T13:15:38.834Z,2.00
2023-04-22T13:18:06.049Z,2.37
2023-04-22T13:20:33.118Z,2.17
2023-04-22T13:22:59.812Z,2.20
2023-04-22T13:25:26.574Z,2.40
2023-04-22T13:27:53.332Z,2.80
2023-04-22T13:30:20.177Z,2.43
2023-04-22T13:32:46.933Z,2.00
2023-04-22T13:35:13.778Z,1.80
2023-04-22T13:37:40.711Z,1.90
2023-04-22T13:40:08.627Z,1.50
2023-04-22T13:42:35.514Z,1.67
2023-04-22T13:45:02.282Z,2.00
2023-04-22T13:47:29.403Z,2.40
2023-04-22T13:49:57.775Z,1.57
2023-04-22T13:52:24.667Z,2.30
2023-04-22T13:54:51.475Z,2.10
2023-04-22T13:57:18.744Z,2.43
2023-04-22T13:59:45.431Z,2.90
2023-04-22T14:02:12.218Z,2.10
2023-04-22T14:04:38.977Z,2.10
2023-04-22T14:07:05.802Z,1.70
2023-04-22T14:09:32.597Z,1.87
2023-04-22T14:11:59.427Z,1.90
2023-04-22T14:14:26.194Z,1.60
2023-04-22T14:16:52.994Z,2.10
2023-04-22T14:19:21.218Z,1.90
2023-04-22T14:21:47.856Z,2.20
2023-04-22T14:24:14.718Z,1.80
2023-04-22T14:26:41.562Z,2.10
2023-04-22T14:29:08.592Z,2.50
2023-04-22T14:31:35.386Z,3.07
2023-04-22T14:34:02.285Z,2.97
2023-04-22T14:36:29.051Z,3.20
2023-04-22T14:38:56.361Z,2.93
2023-04-22T14:41:23.303Z,2.60
2023-04-22T14:43:50.209Z,3.20
2023-04-22T14:46:16.982Z,2.60
2023-04-22T14:48:44.091Z,2.30
2023-04-22T14:51:11.681Z,2.87
2023-04-22T14:53:38.551Z,3.50
2023-04-22T14:56:06.454Z,2.80
2023-04-22T14:58:33.190Z,3.60
2023-04-22T15:01:00.556Z,3.40
2023-04-22T15:03:27.810Z,3.00
2023-04-22T15:05:55.511Z,3.23
2023-04-22T15:08:25.070Z,3.07
2023-04-22T15:10:51.982Z,2.77
2023-04-22T15:13:19.819Z,2.57
2023-04-22T15:15:47.069Z,3.03
2023-04-22T15:18:14.030Z,3.10
2023-04-22T15:20:40.836Z,3.60
2023-04-22T15:23:07.616Z,2.97
2023-04-22T15:25:35.013Z,3.37
2023-04-22T15:28:01.768Z,2.97
2023-04-22T15:30:28.566Z,3.00
2023-04-22T15:32:55.289Z,4.90
2023-04-22T15:35:26.455Z,3.63
2023-04-22T15:37:54.153Z,3.10
2023-04-22T15:40:20.981Z,3.30
2023-04-22T15:42:47.839Z,3.30
2023-04-22T15:45:14.678Z,3.50
2023-04-22T15:47:41.774Z,3.70
2023-04-22T15:50:10.165Z,3.60
2023-04-22T15:52:38.299Z,3.17
2023-04-22T15:55:08.334Z,3.50
2023-04-22T15:57:35.836Z,3.17
2023-04-22T16:00:11.779Z,3.40
2023-04-22T16:02:41.595Z,3.07
2023-04-22T16:05:09.102Z,3.17
2023-04-22T16:07:35.851Z,3.03
2023-04-22T16:10:02.790Z,3.23
2023-04-22T16:12:30.945Z,2.60
2023-04-22T16:14:58.774Z,2.47
2023-04-22T16:17:26.187Z,2.90
2023-04-22T16:19:52.942Z,3.10
2023-04-22T16:22:20.096Z,2.67
2023-04-22T16:24:46.783Z,3.10
2023-04-22T16:27:16.412Z,2.87
2023-04-22T16:29:43.937Z,2.53
2023-04-22T16:32:11.254Z,2.57
2023-04-22T16:34:39.032Z,3.20
2023-04-22T16:37:06.221Z,2.97
2023-04-22T16:39:33.384Z,3.00
2023-04-22T16:42:00.199Z,3.93
2023-04-22T16:44:26.951Z,3.10
2023-04-22T16:46:53.843Z,3.17
2023-04-22T16:49:21.073Z,2.50
2023-04-22T16:51:48.353Z,4.37
2023-04-22T16:54:15.056Z,3.13
2023-04-22T16:56:41.862Z,4.60
2023-04-22T16:59:08.604Z,3.30
2023-04-22T17:01:35.449Z,3.10
2023-04-22T17:04:03.060Z,2.90
2023-04-22T17:06:29.923Z,3.17
2023-04-22T17:08:56.598Z,2.63
2023-04-22T17:11:24.098Z,2.83
2023-04-22T17:13:51.527Z,2.30
2023-04-22T17:16:18.805Z,2.97
2023-04-22T17:18:46.992Z,2.43
2023-04-22T17:21:14.119Z,2.30
2023-04-22T17:23:40.850Z,2.50
2023-04-22T17:26:07.794Z,2.37
2023-04-22T17:28:34.677Z,2.43
2023-04-22T17:31:03.772Z,2.13
2023-04-22T17:33:31.222Z,5.13
2023-04-22T17:35:58.007Z,2.60
2023-04-22T17:38:24.738Z,2.30
2023-04-22T17:40:51.499Z,2.30
2023-04-22T17:43:18.296Z,2.20
2023-04-22T17:45:45.029Z,2.53
2023-04-22T17:48:11.705Z,2.23
2023-04-22T17:50:38.615Z,2.30
2023-04-22T17:53:05.889Z,2.50
2023-04-22T17:55:35.362Z,2.40
2023-04-22T17:58:03.016Z,2.33
2023-04-22T18:00:30.651Z,2.83
2023-04-22T18:02:58.047Z,2.80
2023-04-22T18:05:25.246Z,2.77
2023-04-22T18:07:52.464Z,2.30
2023-04-22T18:10:19.273Z,2.03
2023-04-22T18:12:45.969Z,3.80
2023-04-22T18:15:12.644Z,2.67
2023-04-22T18:17:39.312Z,3.23
2023-04-22T18:20:17.208Z,2.70
2023-04-22T18:22:46.619Z,2.57
2023-04-22T18:25:13.433Z,3.37
2023-04-22T18:27:40.718Z,2.80
2023-04-22T18:30:07.969Z,3.10
2023-04-22T18:32:35.755Z,2.40
2023-04-22T18:35:02.575Z,2.97
2023-04-22T18:37:30.918Z,2.60
2023-04-22T18:39:57.743Z,3.50
2023-04-22T18:42:24.635Z,3.03
2023-04-22T18:44:51.432Z,3.50
2023-04-22T18:47:18.155Z,2.63
2023-04-22T18:49:45.335Z,2.60
2023-04-22T18:52:12.350Z,3.00
2023-04-22T18:54:39.597Z,3.30
2023-04-22T18:57:07.193Z,2.90
2023-04-22T18:59:34.069Z,2.80
2023-04-22T19:02:00.950Z,2.90
2023-04-22T19:04:27.832Z,3.60
2023-04-22T19:06:56.901Z,3.60
2023-04-22T19:09:24.048Z,3.30
2023-04-22T19:11:50.833Z,3.80
2023-04-22T19:14:17.642Z,3.47
2023-04-22T19:16:44.383Z,3.10
2023-04-22T19:19:12.135Z,3.00
2023-04-22T19:21:43.547Z,3.57
2023-04-22T19:24:10.842Z,3.67
2023-04-22T19:26:37.711Z,3.60
2023-04-22T19:29:04.513Z,4.17
2023-04-22T19:31:31.463Z,3.43
2023-04-22T19:33:58.325Z,4.00
2023-04-22T19:36:25.553Z,4.10
2023-04-22T19:38:52.299Z,3.37
2023-04-22T19:41:19.062Z,3.93
2023-04-22T19:43:45.987Z,4.47
2023-04-22T19:46:12.751Z,3.63
2023-04-22T19:48:40.126Z,5.33
2023-04-22T19:51:06.985Z,4.20
2023-04-22T19:53:34.851Z,3.97
2023-04-22T19:56:02.495Z,4.40
2023-04-22T19:58:30.591Z,4.00
2023-04-22T20:00:57.637Z,5.10
2023-04-22T20:03:25.016Z,4.80
2023-04-22T20:05:53.249Z,5.13
2023-04-22T20:08:21.182Z,4.40
2023-04-22T20:10:49.516Z,4.00
2023-04-22T20:13:17.211Z,4.00
2023-04-22T20:15:44.580Z,4.30
2023-04-22T20:18:12.141Z,5.07
2023-04-22T20:20:40.698Z,4.40
2023-04-22T20:23:10.802Z,5.70
2023-04-22T20:25:44.662Z,5.73
2023-04-22T20:28:11.889Z,5.73
2023-04-22T20:30:39.313Z,5.20
2023-04-22T20:33:06.634Z,4.50
2023-04-22T20:35:35.922Z,5.57
2023-04-22T20:38:03.630Z,5.00
2023-04-22T20:40:30.666Z,4.90
2023-04-22T20:42:59.464Z,4.83
2023-04-22T20:45:27.291Z,4.80
2023-04-22T20:47:54.221Z,5.97
2023-04-22T20:50:21.207Z,4.90
2023-04-22T20:52:49.043Z,6.23
2023-04-22T20:55:17.100Z,5.60
2023-04-22T20:57:44.247Z,5.70
2023-04-22T21:00:11.699Z,5.73
2023-04-22T21:02:40.091Z,6.63
2023-04-22T21:05:07.861Z,6.97
2023-04-22T21:07:37.774Z,6.43
2023-04-22T21:10:05.436Z,7.13
2023-04-22T21:12:33.193Z,6.20
2023-04-22T21:15:00.504Z,6.17
2023-04-22T21:17:31.954Z,8.10
2023-04-22T21:19:59.562Z,7.10
2023-04-22T21:22:26.899Z,6.37
2023-04-22T21:24:54.167Z,6.40
2023-04-22T21:27:22.228Z,6.40
2023-04-22T21:29:50.128Z,7.10
2023-04-22T21:32:20.203Z,6.60
2023-04-22T21:34:47.159Z,7.40
2023-04-22T21:37:14.111Z,8.33
2023-04-22T21:39:41.062Z,11.40
2023-04-22T21:42:08.609Z,14.10
2023-04-22T21:44:36.829Z,13.20
2023-04-22T21:47:04.630Z,15.27
2023-04-22T21:49:31.639Z,14.30
2023-04-22T21:51:58.928Z,15.23
2023-04-22T21:54:25.651Z,14.50
2023-04-22T21:56:52.474Z,14.10
2023-04-22T21:59:19.351Z,11.70
2023-04-22T22:01:46.155Z,12.67
2023-04-22T22:04:15.684Z,13.37
2023-04-22T22:06:43.871Z,12.63
2023-04-22T22:09:11.594Z,11.50
2023-04-22T22:11:38.377Z,13.03
2023-04-22T22:14:05.207Z,12.47
2023-04-22T22:16:34.585Z,12.20
2023-04-22T22:19:02.878Z,12.30
2023-04-22T22:21:31.343Z,12.73
2023-04-22T22:23:58.388Z,13.57
2023-04-22T22:26:26.187Z,13.00
2023-04-22T22:28:52.992Z,12.20
2023-04-22T22:31:20.038Z,12.70
2023-04-22T22:33:46.968Z,12.47
2023-04-22T22:36:15.218Z,12.10
2023-04-22T22:38:42.064Z,12.97
2023-04-22T22:41:08.958Z,11.83
2023-04-22T22:43:35.679Z,11.47
2023-04-22T22:46:02.801Z,11.80
2023-04-22T22:48:29.746Z,11.30
2023-04-22T22:50:59.328Z,12.73
2023-04-22T22:53:26.071Z,12.30
2023-04-22T22:55:55.375Z,12.20
2023-04-22T22:58:24.155Z,12.27
2023-04-22T23:00:51.327Z,12.90
2023-04-22T23:03:19.897Z,14.40
2023-04-22T23:05:47.077Z,15.40
2023-04-22T23:08:14.839Z,17.93
2023-04-22T23:10:41.671Z,19.50
2023-04-22T23:13:08.461Z,20.27
2023-04-22T23:15:35.282Z,20.80
2023-04-22T23:18:02.445Z,20.77
2023-04-22T23:20:29.961Z,20.57
2023-04-22T23:22:57.831Z,22.73
2023-04-22T23:25:24.927Z,23.23
2023-04-22T23:27:52.891Z,23.80
2023-04-22T23:30:20.227Z,25.77
2023-04-22T23:32:48.581Z,24.77
2023-04-22T23:35:15.573Z,23.83
2023-04-22T23:37:45.723Z,23.90
2023-04-22T23:40:13.278Z,24.17
2023-04-22T23:42:40.012Z,24.07
2023-04-22T23:45:07.381Z,24.07
2023-04-22T23:47:37.414Z,26.00
2023-04-22T23:50:04.879Z,25.80
2023-04-22T23:52:31.632Z,24.97
2023-04-22T23:54:58.680Z,24.77
2023-04-22T23:57:25.749Z,27.40
2023-04-22T23:59:52.731Z,25.10
